Time;durP1;ratioP1;P1;durP2;ratioP2;P2;SDS_P1;SDS_P2;PMS_P1;PMS_P2;Temp;Humidity;BMP_temperature;BMP_pressure;BME280_temperature;BME280_humidity;BME280_pressure;Samples;Min_cycle;Max_cycle;Signal;HPM_P1;HPM_P2
2022/09/27 00:01:52;;;;;;;1.97;1.77;;;9.40;99.90;;;;;;5012183;28;20182;-68
2022/09/27 00:04:17;;;;;;;3.27;1.70;;;9.50;99.90;;;;;;5012097;28;20198;-67
2022/09/27 00:06:43;;;;;;;1.60;1.50;;;9.50;99.90;;;;;;5012728;28;20190;-68
2022/09/27 00:09:08;;;;;;;1.83;1.73;;;9.40;99.90;;;;;;5011463;28;20657;-67
2022/09/27 00:11:38;;;;;;;2.13;1.17;;;9.40;99.90;;;;;;5010911;28;20203;-67
2022/09/27 00:14:05;;;;;;;5.10;1.73;;;9.40;99.90;;;;;;5012813;28;20202;-67
2022/09/27 00:16:33;;;;;;;2.63;1.50;;;9.50;99.90;;;;;;5013341;28;20438;-67
2022/09/27 00:19:01;;;;;;;1.40;1.30;;;9.50;99.90;;;;;;5008764;28;20476;-68
2022/09/27 00:21:28;;;;;;;1.77;1.53;;;9.50;99.90;;;;;;5011801;28;20438;-67
2022/09/27 00:23:54;;;;;;;1.97;1.43;;;9.50;99.90;;;;;;5013006;28;20549;-68
2022/09/27 00:26:19;;;;;;;1.30;1.20;;;9.50;99.90;;;;;;5011857;28;21018;-67
2022/09/27 00:28:45;;;;;;;1.47;1.37;;;9.50;99.90;;;;;;5005538;28;20201;-68
2022/09/27 00:31:19;;;;;;;1.20;1.10;;;9.50;99.90;;;;;;5012099;28;20739;-68
2022/09/27 00:33:47;;;;;;;1.20;1.10;;;9.50;99.90;;;;;;5006234;28;20973;-68
2022/09/27 00:36:13;;;;;;;2.40;1.07;;;9.50;99.90;;;;;;5012043;28;20442;-67
2022/09/27 00:38:40;;;;;;;2.50;1.50;;;9.50;99.90;;;;;;5010426;28;20858;-67
2022/09/27 00:41:06;;;;;;;1.37;1.20;;;9.50;99.90;;;;;;5011266;28;20438;-68
2022/09/27 00:43:52;;;;;;;1.30;1.20;;;9.50;99.90;;;;;;5012565;28;20989;-68
2022/09/27 00:46:27;;;;;;;2.27;1.23;;;9.50;99.90;;;;;;5011192;28;20176;-68
2022/09/27 00:49:13;;;;;;;1.30;1.20;;;9.50;99.90;;;;;;5010482;28;20437;-66
2022/09/27 00:51:41;;;;;;;1.83;1.50;;;9.50;99.90;;;;;;4981549;28;20849;-68
2022/09/27 00:54:11;;;;;;;2.17;1.27;;;9.50;99.90;;;;;;5011849;28;20501;-68
2022/09/27 00:56:38;;;;;;;2.23;1.30;;;9.50;99.90;;;;;;5011098;28;20512;-66
2022/09/27 00:59:19;;;;;;;1.50;1.40;;;9.50;99.90;;;;;;5010162;28;20454;-67
2022/09/27 01:01:45;;;;;;;1.70;1.47;;;9.50;99.90;;;;;;5011569;28;20836;-68
2022/09/27 01:04:14;;;;;;;1.70;1.57;;;9.50;99.90;;;;;;5010159;28;20461;-66
2022/09/27 01:06:39;;;;;;;1.40;1.30;;;9.50;99.90;;;;;;5011280;28;20200;-68
2022/09/27 01:09:07;;;;;;;1.50;1.33;;;9.50;99.90;;;;;;5010493;28;20485;-67
2022/09/27 01:11:48;;;;;;;2.00;1.53;;;9.50;99.90;;;;;;5011767;28;20294;-68
2022/09/27 01:14:27;;;;;;;1.40;1.30;;;9.50;99.90;;;;;;5011355;28;20434;-68
2022/09/27 01:17:12;;;;;;;1.30;1.20;;;9.50;99.90;;;;;;5008193;28;20492;-68
2022/09/27 01:20:04;;;;;;;1.80;1.40;;;9.50;99.90;;;;;;5003872;28;20434;-66
2022/09/27 01:22:43;;;;;;;1.60;1.50;;;9.50;99.90;;;;;;5011901;28;20455;-68
2022/09/27 01:25:30;;;;;;;2.30;1.53;;;9.50;99.90;;;;;;5006648;28;20446;-67
2022/09/27 01:28:16;;;;;;;1.93;1.83;;;9.50;99.90;;;;;;5008971;28;21129;-68
2022/09/27 01:31:08;;;;;;;1.37;1.27;;;9.50;99.90;;;;;;5011624;28;20492;-66
2022/09/27 01:33:44;;;;;;;1.47;1.37;;;9.50;99.90;;;;;;5004746;28;20974;-68
2022/09/27 01:36:24;;;;;;;0.80;0.80;;;9.60;99.90;;;;;;5011816;28;20511;-67
2022/09/27 01:39:11;;;;;;;1.30;1.20;;;9.50;99.90;;;;;;5010722;28;20441;-68
2022/09/27 01:41:59;;;;;;;1.30;1.20;;;9.50;99.90;;;;;;5004754;28;20547;-67
2022/09/27 01:44:43;;;;;;;1.93;1.27;;;9.60;99.90;;;;;;5009144;28;20545;-68
2022/09/27 01:47:20;;;;;;;1.27;1.17;;;9.60;99.90;;;;;;5011687;28;20456;-67
2022/09/27 01:50:09;;;;;;;1.20;1.10;;;9.60;99.90;;;;;;5011113;28;20533;-68
2022/09/27 01:52:52;;;;;;;3.67;1.17;;;9.70;99.90;;;;;;5006522;28;20572;-67
2022/09/27 01:55:23;;;;;;;1.50;1.40;;;9.70;99.90;;;;;;5008199;28;20977;-68
2022/09/27 01:57:58;;;;;;;1.10;1.00;;;9.70;99.90;;;;;;5011834;28;20429;-67
2022/09/27 02:00:24;;;;;;;1.10;1.10;;;9.70;99.90;;;;;;5009864;28;20440;-68
2022/09/27 02:02:56;;;;;;;3.60;1.20;;;9.80;99.90;;;;;;5004843;28;20560;-67
2022/09/27 02:05:28;;;;;;;1.07;0.97;;;9.80;99.90;;;;;;5009473;28;20240;-68
2022/09/27 02:08:01;;;;;;;1.47;0.80;;;9.80;99.90;;;;;;5010954;28;20434;-68
2022/09/27 02:10:40;;;;;;;1.57;1.30;;;9.80;99.90;;;;;;5010204;28;20441;-68
2022/09/27 02:13:28;;;;;;;1.33;1.23;;;9.80;99.90;;;;;;5011525;28;20469;-67
2022/09/27 02:16:05;;;;;;;1.00;0.90;;;9.80;99.90;;;;;;5011405;28;20504;-68
2022/09/27 02:18:51;;;;;;;2.20;0.90;;;9.80;99.90;;;;;;5010272;28;20433;-68
2022/09/27 02:21:18;;;;;;;1.77;1.27;;;9.90;99.90;;;;;;5011634;28;20492;-68
2022/09/27 02:23:51;;;;;;;1.27;1.07;;;9.90;99.90;;;;;;5011374;28;20507;-68
2022/09/27 02:26:19;;;;;;;9.50;1.30;;;9.80;99.90;;;;;;5011387;28;20512;-66
2022/09/27 02:29:01;;;;;;;4.27;1.30;;;9.80;99.90;;;;;;5009803;28;20439;-68
2022/09/27 02:31:26;;;;;;;1.03;0.93;;;9.80;99.90;;;;;;5011173;28;20472;-68
2022/09/27 02:33:58;;;;;;;3.23;1.10;;;9.80;99.90;;;;;;5011336;28;20462;-66
2022/09/27 02:36:24;;;;;;;2.10;1.10;;;9.90;99.90;;;;;;5010982;28;20182;-67
2022/09/27 02:38:50;;;;;;;1.30;0.70;;;9.90;99.90;;;;;;5009671;28;20433;-67
2022/09/27 02:41:18;;;;;;;0.90;0.90;;;9.80;99.90;;;;;;5011404;28;20225;-68
2022/09/27 02:43:49;;;;;;;1.43;0.70;;;9.70;99.90;;;;;;5011157;28;20454;-68
2022/09/27 02:46:30;;;;;;;1.37;0.80;;;9.70;99.90;;;;;;5011107;28;20429;-66
2022/09/27 02:49:20;;;;;;;3.30;0.87;;;9.60;99.90;;;;;;5009585;28;20449;-68
2022/09/27 02:51:58;;;;;;;0.90;0.70;;;9.60;99.90;;;;;;5005074;28;20460;-67
2022/09/27 02:54:40;;;;;;;1.37;0.80;;;9.50;99.90;;;;;;5007574;28;20438;-68
2022/09/27 02:57:36;;;;;;;0.70;0.70;;;9.50;99.90;;;;;;5011241;28;20484;-67
2022/09/27 03:00:09;;;;;;;1.20;0.63;;;9.40;99.90;;;;;;5009748;28;20535;-67
2022/09/27 03:02:42;;;;;;;3.13;1.00;;;9.30;99.90;;;;;;5007381;28;20480;-68
2022/09/27 03:05:16;;;;;;;1.27;0.67;;;9.20;99.90;;;;;;5010193;28;20438;-67
2022/09/27 03:07:41;;;;;;;1.10;1.00;;;9.20;99.90;;;;;;5011067;28;20456;-67
2022/09/27 03:10:17;;;;;;;1.17;0.80;;;9.10;99.90;;;;;;5009646;28;20449;-66
2022/09/27 03:12:43;;;;;;;4.30;1.10;;;9.10;99.90;;;;;;5010261;28;20710;-67
2022/09/27 03:15:09;;;;;;;3.00;1.10;;;9.00;99.90;;;;;;5010624;28;20426;-68
2022/09/27 03:17:35;;;;;;;2.20;1.00;;;9.00;99.90;;;;;;5011215;28;20179;-68
2022/09/27 03:20:00;;;;;;;0.83;0.83;;;9.00;99.90;;;;;;5009302;28;20440;-68
2022/09/27 03:22:26;;;;;;;1.07;0.70;;;8.90;99.90;;;;;;5010954;28;20294;-66
2022/09/27 03:24:52;;;;;;;1.07;0.90;;;8.90;99.90;;;;;;5010025;28;20187;-68
2022/09/27 03:27:17;;;;;;;3.70;0.97;;;8.90;99.90;;;;;;5014119;28;20676;-68
2022/09/27 03:29:43;;;;;;;0.83;0.83;;;8.90;99.90;;;;;;5012207;28;20794;-66
2022/09/27 03:32:09;;;;;;;1.63;0.90;;;8.90;99.90;;;;;;5012599;28;20214;-68
2022/09/27 03:34:34;;;;;;;1.43;1.27;;;8.90;99.90;;;;;;5012986;28;20171;-68
2022/09/27 03:37:00;;;;;;;0.80;0.80;;;8.90;99.90;;;;;;5012847;28;20446;-67
2022/09/27 03:39:26;;;;;;;1.57;1.40;;;9.00;99.90;;;;;;5013195;28;20258;-66
2022/09/27 03:41:52;;;;;;;1.43;1.17;;;9.00;99.90;;;;;;5011947;28;20541;-66
2022/09/27 03:44:17;;;;;;;1.30;1.20;;;9.00;99.90;;;;;;5013898;28;20183;-69
2022/09/27 03:46:43;;;;;;;3.10;1.90;;;8.90;99.90;;;;;;5013339;28;20190;-67
2022/09/27 03:49:08;;;;;;;2.50;1.60;;;9.00;99.90;;;;;;5012595;28;20236;-66
2022/09/27 03:51:34;;;;;;;4.23;1.73;;;9.00;99.90;;;;;;5007368;28;20187;-68
2022/09/27 03:53:59;;;;;;;3.77;1.83;;;9.00;99.90;;;;;;5008477;28;20214;-67
2022/09/27 03:56:25;;;;;;;3.10;2.70;;;9.00;99.90;;;;;;5009830;28;20186;-65
2022/09/27 03:58:50;;;;;;;2.90;1.97;;;9.10;99.90;;;;;;5012957;28;20959;-68
2022/09/27 04:01:16;;;;;;;2.60;2.10;;;9.10;99.90;;;;;;5013453;28;20217;-67
2022/09/27 04:03:41;;;;;;;4.57;1.80;;;9.10;99.90;;;;;;5014021;28;20305;-67
2022/09/27 04:06:07;;;;;;;9.30;2.67;;;9.20;99.90;;;;;;5013855;28;20187;-68
2022/09/27 04:08:33;;;;;;;5.07;1.67;;;9.20;99.90;;;;;;5011891;28;20202;-68
2022/09/27 04:10:58;;;;;;;5.03;2.17;;;9.20;99.90;;;;;;5013433;28;20577;-68
2022/09/27 04:13:24;;;;;;;3.03;2.37;;;9.10;99.90;;;;;;5008964;28;20218;-68
2022/09/27 04:15:50;;;;;;;7.23;3.77;;;9.20;99.90;;;;;;5004195;28;20194;-66
2022/09/27 04:18:15;;;;;;;4.10;2.30;;;9.20;99.90;;;;;;5012572;28;20179;-67
2022/09/27 04:20:41;;;;;;;4.63;4.00;;;9.10;99.90;;;;;;5011199;28;20481;-69
2022/09/27 04:23:07;;;;;;;7.20;3.90;;;9.10;99.90;;;;;;5013166;28;20567;-67
2022/09/27 04:25:32;;;;;;;4.80;2.90;;;9.10;99.90;;;;;;5012119;28;20194;-68
2022/09/27 04:28:00;;;;;;;5.67;2.83;;;9.10;99.90;;;;;;5013085;28;20194;-68
2022/09/27 04:30:28;;;;;;;8.47;3.43;;;9.10;99.90;;;;;;5007770;28;20598;-67
2022/09/27 04:32:54;;;;;;;7.33;3.10;;;9.10;99.90;;;;;;5010590;28;20485;-68
2022/09/27 04:38:03;;;;;;;6.17;3.43;;;9.10;99.90;;;;;;5011400;28;20221;-68
2022/09/27 04:40:29;;;;;;;5.97;3.63;;;9.10;99.90;;;;;;5003966;28;20990;-68
2022/09/27 04:42:55;;;;;;;4.40;2.13;;;9.20;99.90;;;;;;5001368;28;20283;-68
2022/09/27 04:45:21;;;;;;;6.30;4.10;;;9.20;99.90;;;;;;5012532;28;20559;-68
2022/09/27 04:47:48;;;;;;;2.50;2.30;;;9.20;99.90;;;;;;5004356;28;20446;-68
2022/09/27 04:50:16;;;;;;;7.63;3.10;;;9.20;99.90;;;;;;5011898;28;20640;-68
2022/09/27 04:52:42;;;;;;;3.33;2.50;;;9.20;99.90;;;;;;5011723;28;20543;-67
2022/09/27 04:55:09;;;;;;;3.77;2.77;;;9.20;99.90;;;;;;5002996;28;22241;-67
2022/09/27 04:57:35;;;;;;;5.87;2.77;;;9.20;99.90;;;;;;5007709;28;20185;-68
2022/09/27 05:00:01;;;;;;;11.43;4.00;;;9.20;99.90;;;;;;5004091;28;20447;-68
2022/09/27 05:02:27;;;;;;;4.30;2.97;;;9.30;99.90;;;;;;5010494;28;20641;-67
2022/09/27 05:04:58;;;;;;;5.60;3.63;;;9.30;99.90;;;;;;5005848;28;20529;-67
2022/09/27 05:07:27;;;;;;;8.47;3.33;;;9.30;99.90;;;;;;5004138;28;20469;-67
2022/09/27 05:09:52;;;;;;;10.67;5.47;;;9.40;99.90;;;;;;5017027;28;20831;-67
2022/09/27 05:12:19;;;;;;;4.90;4.30;;;9.40;99.90;;;;;;5003998;28;20488;-68
2022/09/27 05:14:44;;;;;;;8.40;3.77;;;9.40;99.90;;;;;;5009632;28;20179;-68
2022/09/27 05:17:11;;;;;;;8.30;3.20;;;9.50;99.90;;;;;;5008527;28;20822;-69
2022/09/27 05:19:38;;;;;;;6.33;2.43;;;9.50;99.90;;;;;;5010610;28;20171;-68
2022/09/27 05:22:07;;;;;;;4.97;2.43;;;9.50;99.90;;;;;;5005122;28;20507;-68
2022/09/27 05:24:33;;;;;;;3.50;2.20;;;9.50;99.90;;;;;;5000625;28;20462;-68
2022/09/27 05:26:59;;;;;;;5.33;2.80;;;9.40;99.90;;;;;;5006353;28;20484;-67
2022/09/27 05:29:25;;;;;;;3.23;2.30;;;9.40;99.90;;;;;;5008364;28;20195;-67
2022/09/27 05:31:51;;;;;;;2.57;2.37;;;9.40;99.90;;;;;;5009586;28;20469;-68
2022/09/27 05:34:19;;;;;;;5.73;2.83;;;9.40;99.90;;;;;;5007046;28;20946;-67
2022/09/27 05:36:46;;;;;;;2.90;1.83;;;9.40;99.90;;;;;;5011321;28;20558;-67
2022/09/27 05:39:12;;;;;;;6.93;2.67;;;9.50;99.90;;;;;;5008482;28;20449;-68
2022/09/27 05:41:39;;;;;;;4.27;3.27;;;9.50;99.90;;;;;;5009288;28;20939;-67
2022/09/27 05:44:05;;;;;;;4.50;2.70;;;9.50;99.90;;;;;;5005124;28;20207;-68
2022/09/27 05:46:30;;;;;;;8.60;3.57;;;9.50;99.90;;;;;;5010796;28;20895;-69
2022/09/27 05:48:56;;;;;;;5.27;4.00;;;9.50;99.90;;;;;;5011097;28;20274;-67
2022/09/27 05:51:21;;;;;;;3.43;2.57;;;9.60;99.90;;;;;;5011467;28;20309;-67
2022/09/27 05:53:47;;;;;;;3.07;2.50;;;9.60;99.90;;;;;;5010931;28;20707;-68
2022/09/27 05:56:12;;;;;;;2.80;2.57;;;9.50;99.90;;;;;;5011147;28;20182;-67
2022/09/27 05:58:38;;;;;;;8.20;3.33;;;9.50;99.90;;;;;;5010262;28;20183;-68
2022/09/27 06:01:07;;;;;;;2.73;2.53;;;9.50;99.90;;;;;;5010809;28;20182;-68
2022/09/27 06:03:33;;;;;;;3.57;2.37;;;9.50;99.90;;;;;;5005098;28;20675;-68
2022/09/27 06:06:05;;;;;;;3.70;2.80;;;9.50;99.90;;;;;;5008986;28;20534;-67
2022/09/27 06:08:35;;;;;;;5.30;2.60;;;9.50;99.90;;;;;;5010353;28;20834;-67
2022/09/27 06:11:07;;;;;;;3.00;2.70;;;9.40;99.90;;;;;;5009051;28;20429;-67
2022/09/27 06:13:33;;;;;;;4.07;2.47;;;9.40;99.90;;;;;;5007670;28;20505;-67
2022/09/27 06:15:59;;;;;;;6.30;3.23;;;9.40;99.90;;;;;;5008663;28;20432;-67
2022/09/27 06:18:24;;;;;;;5.33;2.43;;;9.30;99.90;;;;;;5008274;28;20433;-67
2022/09/27 06:20:50;;;;;;;3.97;2.43;;;9.40;99.90;;;;;;5010327;28;20656;-68
2022/09/27 06:23:18;;;;;;;4.53;2.87;;;9.40;99.90;;;;;;5009511;28;20256;-68
2022/09/27 06:25:45;;;;;;;5.23;3.00;;;9.40;99.90;;;;;;5009925;28;20440;-69
2022/09/27 06:28:12;;;;;;;6.90;3.10;;;9.50;99.90;;;;;;5010856;28;20430;-67
2022/09/27 06:30:40;;;;;;;2.67;2.47;;;9.50;99.90;;;;;;5008792;28;20468;-67
2022/09/27 06:33:06;;;;;;;3.80;2.63;;;9.60;99.90;;;;;;5010096;28;20928;-67
2022/09/27 06:35:34;;;;;;;1.63;1.40;;;9.60;99.90;;;;;;4995215;28;20478;-68
2022/09/27 06:38:03;;;;;;;3.00;1.47;;;9.70;99.90;;;;;;4989704;28;20434;-67
2022/09/27 06:40:29;;;;;;;4.90;1.90;;;9.70;99.90;;;;;;4996354;28;20985;-67
2022/09/27 06:43:01;;;;;;;2.00;1.70;;;9.60;99.90;;;;;;5007932;28;20462;-68
2022/09/27 06:45:27;;;;;;;1.53;1.43;;;9.60;99.90;;;;;;5006780;28;20183;-67
2022/09/27 06:47:53;;;;;;;1.73;1.33;;;9.60;99.90;;;;;;5005024;28;20441;-68
2022/09/27 06:50:18;;;;;;;1.63;1.30;;;9.70;99.90;;;;;;5008277;28;20183;-68
2022/09/27 06:52:48;;;;;;;4.60;2.00;;;9.70;99.90;;;;;;5007293;28;20222;-69
2022/09/27 06:55:14;;;;;;;3.23;1.40;;;9.70;99.90;;;;;;5003691;28;20187;-67
2022/09/27 07:00:25;;;;;;;1.10;1.10;;;9.80;99.90;;;;;;5005586;28;20802;-68
2022/09/27 07:02:53;;;;;;;0.90;0.90;;;9.90;99.90;;;;;;5005763;28;20499;-69
2022/09/27 07:05:19;;;;;;;0.97;0.80;;;9.90;99.90;;;;;;5006276;28;20986;-67
2022/09/27 07:07:47;;;;;;;1.07;0.70;;;10.00;99.90;;;;;;5014090;28;20953;-67
2022/09/27 07:10:13;;;;;;;1.57;1.10;;;10.00;99.90;;;;;;5011963;28;20425;-67
2022/09/27 07:12:39;;;;;;;1.53;0.73;;;10.00;99.90;;;;;;5008063;28;20470;-67
2022/09/27 07:15:05;;;;;;;1.10;1.10;;;10.10;99.90;;;;;;5004864;28;20442;-68
2022/09/27 07:17:31;;;;;;;2.70;2.13;;;10.20;99.90;;;;;;5004224;28;20223;-67
2022/09/27 07:19:56;;;;;;;1.73;1.30;;;10.30;99.90;;;;;;5011293;28;20469;-67
2022/09/27 07:22:22;;;;;;;1.30;0.60;;;10.20;99.90;;;;;;5012284;28;20214;-67
2022/09/27 07:24:47;;;;;;;0.77;0.60;;;10.20;99.90;;;;;;5010861;28;20691;-67
2022/09/27 07:27:14;;;;;;;0.80;0.80;;;10.40;99.90;;;;;;5012578;28;20194;-69
2022/09/27 07:29:39;;;;;;;0.60;0.60;;;10.50;99.90;;;;;;5008511;28;20570;-69
2022/09/27 07:32:06;;;;;;;0.60;0.60;;;10.50;99.90;;;;;;5010166;28;20461;-69
2022/09/27 07:34:34;;;;;;;1.17;1.00;;;10.40;99.90;;;;;;5007410;28;20198;-70
2022/09/27 07:37:04;;;;;;;1.03;0.90;;;10.30;99.90;;;;;;5011146;28;20437;-70
2022/09/27 07:39:30;;;;;;;0.73;0.70;;;10.20;99.90;;;;;;5008769;28;20517;-70
2022/09/27 07:41:56;;;;;;;3.33;1.20;;;10.20;99.90;;;;;;5010360;28;20500;-69
2022/09/27 07:44:21;;;;;;;1.17;0.70;;;10.20;99.90;;;;;;5011963;28;20438;-70
2022/09/27 07:46:47;;;;;;;1.47;0.87;;;10.10;99.90;;;;;;5007671;28;20253;-77
2022/09/27 07:49:13;;;;;;;1.00;0.90;;;10.20;99.90;;;;;;5011660;28;20754;-76
2022/09/27 07:51:38;;;;;;;0.80;0.80;;;10.40;99.90;;;;;;5010728;28;20206;-70
2022/09/27 07:54:04;;;;;;;3.83;2.00;;;10.50;99.90;;;;;;5012580;28;20245;-71
2022/09/27 07:56:30;;;;;;;1.03;1.00;;;10.60;99.90;;;;;;5010192;28;20724;-70
2022/09/27 07:58:55;;;;;;;0.70;0.70;;;10.60;99.90;;;;;;5012344;28;20532;-71
2022/09/27 08:01:21;;;;;;;2.97;1.63;;;10.70;99.90;;;;;;5010365;28;20178;-70
2022/09/27 08:03:46;;;;;;;1.50;1.20;;;10.70;99.90;;;;;;5012496;28;20227;-70
2022/09/27 08:06:12;;;;;;;0.90;0.73;;;10.90;99.90;;;;;;5009906;28;20185;-70
2022/09/27 08:08:38;;;;;;;0.90;0.90;;;10.90;99.90;;;;;;5007566;28;20183;-74
2022/09/27 08:11:14;;;;;;;1.50;0.90;;;10.90;99.90;;;;;;4998265;28;20187;-73
2022/09/27 08:13:44;;;;;;;2.93;0.90;;;11.00;99.90;;;;;;5027922;28;20882;-71
2022/09/27 08:16:10;;;;;;;1.37;0.70;;;11.00;99.90;;;;;;5011589;28;20437;-71
2022/09/27 08:18:36;;;;;;;2.40;0.80;;;11.00;99.90;;;;;;5009029;28;20943;-72
2022/09/27 08:21:03;;;;;;;1.03;0.60;;;11.20;99.90;;;;;;5003967;28;20430;-70
2022/09/27 08:23:29;;;;;;;0.70;0.70;;;11.20;99.90;;;;;;5009810;28;20446;-72
2022/09/27 08:25:58;;;;;;;1.00;0.90;;;11.40;99.90;;;;;;5002795;28;20437;-71
2022/09/27 08:28:25;;;;;;;1.07;0.80;;;11.80;99.90;;;;;;4999398;28;20454;-71
2022/09/27 08:30:50;;;;;;;0.93;0.83;;;12.20;99.90;;;;;;5011451;28;20461;-71
2022/09/27 08:33:16;;;;;;;1.87;0.90;;;12.80;99.90;;;;;;5010286;28;20472;-71
2022/09/27 08:35:41;;;;;;;0.90;0.70;;;12.90;99.90;;;;;;5010837;28;20186;-70
2022/09/27 08:38:10;;;;;;;1.00;1.00;;;12.60;99.90;;;;;;5008260;28;20195;-71
2022/09/27 08:41:01;;;;;;;0.73;0.73;;;12.30;99.90;;;;;;5000359;28;20180;-70
2022/09/27 08:43:40;;;;;;;1.50;1.30;;;12.00;99.90;;;;;;5010089;28;20515;-71
2022/09/27 08:46:34;;;;;;;1.13;1.03;;;11.80;99.90;;;;;;5006047;28;20445;-71
2022/09/27 08:49:09;;;;;;;2.50;0.70;;;11.60;99.90;;;;;;5009712;28;20815;-71
2022/09/27 08:51:36;;;;;;;0.93;0.80;;;11.60;99.90;;;;;;5003314;28;20468;-71
2022/09/27 08:54:17;;;;;;;0.90;0.90;;;11.40;99.90;;;;;;5012131;28;20553;-71
2022/09/27 08:56:43;;;;;;;1.90;0.90;;;11.30;99.90;;;;;;5010773;28;20447;-71
2022/09/27 08:59:23;;;;;;;1.03;0.90;;;11.50;99.90;;;;;;5009202;28;20445;-71
2022/09/27 09:01:51;;;;;;;2.07;1.07;;;13.00;99.90;;;;;;5009996;28;20181;-71
2022/09/27 09:04:30;;;;;;;1.00;0.73;;;13.20;99.90;;;;;;5008385;28;20445;-71
2022/09/27 09:07:11;;;;;;;1.77;1.13;;;13.60;99.90;;;;;;5002485;28;20501;-71
2022/09/27 09:09:58;;;;;;;1.23;1.13;;;13.60;99.90;;;;;;5007695;28;20477;-71
2022/09/27 09:12:56;;;;;;;1.30;1.20;;;13.70;99.90;;;;;;5009642;28;20977;-68
2022/09/27 09:15:53;;;;;;;2.50;1.10;;;13.50;99.90;;;;;;5008736;28;20433;-71
2022/09/27 09:18:45;;;;;;;3.30;0.97;;;13.70;99.90;;;;;;5008115;28;20533;-70
2022/09/27 09:21:39;;;;;;;1.43;1.33;;;14.00;99.90;;;;;;5009214;28;20809;-72
2022/09/27 09:24:20;;;;;;;1.00;1.00;;;14.50;99.90;;;;;;5010446;28;20480;-71
2022/09/27 09:26:54;;;;;;;3.70;1.17;;;15.60;99.90;;;;;;5009898;28;20433;-69
2022/09/27 09:29:28;;;;;;;1.67;1.57;;;16.70;99.90;;;;;;5010819;28;20439;-69
2022/09/27 09:32:11;;;;;;;1.80;1.20;;;17.70;99.90;;;;;;5010394;28;20495;-68
2022/09/27 09:34:45;;;;;;;2.20;1.93;;;17.40;99.90;;;;;;5007163;28;20490;-72
2022/09/27 09:37:33;;;;;;;1.13;1.03;;;17.90;99.90;;;;;;5007902;28;20441;-70
2022/09/27 09:40:16;;;;;;;1.10;1.10;;;19.10;99.90;;;;;;5005959;28;20487;-69
2022/09/27 09:42:58;;;;;;;1.50;1.40;;;19.20;99.90;;;;;;5006291;28;20560;-69
2022/09/27 09:45:33;;;;;;;1.73;1.17;;;19.10;99.90;;;;;;5005228;28;20453;-69
2022/09/27 09:48:04;;;;;;;1.63;1.30;;;19.60;99.10;;;;;;5004980;28;20481;-70
2022/09/27 09:50:45;;;;;;;1.60;1.10;;;19.20;97.90;;;;;;5008542;28;21038;-69
2022/09/27 09:53:34;;;;;;;1.40;1.30;;;19.20;98.20;;;;;;5008166;28;20527;-69
2022/09/27 09:56:04;;;;;;;1.57;1.30;;;19.20;97.80;;;;;;5005014;28;20438;-69
2022/09/27 09:58:45;;;;;;;1.10;1.00;;;19.60;95.90;;;;;;5008467;28;20452;-69
2022/09/27 10:01:25;;;;;;;1.23;1.13;;;21.20;96.30;;;;;;5006287;28;22600;-69
2022/09/27 10:03:50;;;;;;;2.40;1.43;;;22.50;90.70;;;;;;5048424;22;20910;-70
2022/09/27 10:06:18;;;;;;;1.50;1.33;;;20.70;91.80;;;;;;5052237;28;20441;-71
2022/09/27 10:08:43;;;;;;;1.80;1.47;;;20.10;93.50;;;;;;5049182;28;20185;-70
2022/09/27 10:11:20;;;;;;;1.80;1.17;;;20.40;93.00;;;;;;5047339;28;20800;-71
2022/09/27 10:13:46;;;;;;;2.63;1.50;;;21.20;91.00;;;;;;5063427;28;20635;-70
2022/09/27 10:16:15;;;;;;;1.63;1.53;;;21.20;90.60;;;;;;5066374;28;20451;-68
2022/09/27 10:18:41;;;;;;;2.17;1.10;;;21.00;90.60;;;;;;5069551;28;20514;-69
2022/09/27 10:21:21;;;;;;;1.40;1.30;;;20.60;89.20;;;;;;5068706;28;20531;-73
2022/09/27 10:24:06;;;;;;;1.43;1.13;;;19.30;91.70;;;;;;5067027;28;21723;-70
2022/09/27 10:26:32;;;;;;;1.30;1.20;;;17.90;95.00;;;;;;5072360;28;20435;-72
2022/09/27 10:29:13;;;;;;;1.50;1.37;;;16.70;99.50;;;;;;5071657;28;20446;-71
2022/09/27 10:31:44;;;;;;;2.17;1.77;;;15.50;99.90;;;;;;5057157;28;20459;-70
2022/09/27 10:34:16;;;;;;;1.57;1.47;;;15.20;99.90;;;;;;5058855;28;20999;-72
2022/09/27 10:36:42;;;;;;;2.53;1.40;;;15.60;99.90;;;;;;5074162;28;20524;-73
2022/09/27 10:39:21;;;;;;;1.83;1.73;;;16.20;99.90;;;;;;5073831;28;20571;-70
2022/09/27 10:41:46;;;;;;;1.60;1.50;;;18.30;99.90;;;;;;5071658;28;20536;-71
2022/09/27 10:44:14;;;;;;;2.60;1.80;;;20.30;94.80;;;;;;5074822;28;20442;-70
2022/09/27 10:46:42;;;;;;;3.97;1.67;;;19.60;94.10;;;;;;5075534;28;20195;-70
2022/09/27 10:49:29;;;;;;;2.67;1.67;;;19.10;95.50;;;;;;5073920;28;20431;-72
2022/09/27 10:52:01;;;;;;;1.80;1.70;;;17.90;97.90;;;;;;5074824;28;20474;-72
2022/09/27 10:54:29;;;;;;;1.73;1.63;;;17.00;99.90;;;;;;5074387;28;20924;-72
2022/09/27 10:57:12;;;;;;;3.03;1.40;;;16.50;99.90;;;;;;5075009;28;20437;-72
2022/09/27 10:59:41;;;;;;;1.80;1.70;;;16.40;99.90;;;;;;5074789;28;20765;-72
2022/09/27 11:02:27;;;;;;;2.00;1.90;;;16.00;99.90;;;;;;5074060;28;20427;-72
2022/09/27 11:05:13;;;;;;;2.13;1.70;;;15.40;99.90;;;;;;5075275;28;20430;-72
2022/09/27 11:07:58;;;;;;;2.17;1.80;;;15.00;99.90;;;;;;5071148;28;20422;-73
2022/09/27 11:10:30;;;;;;;1.47;1.37;;;14.80;99.90;;;;;;5072810;28;20427;-72
2022/09/27 11:13:11;;;;;;;4.03;1.80;;;14.60;99.90;;;;;;5069962;28;20994;-73
2022/09/27 11:16:03;;;;;;;2.60;2.40;;;14.50;99.90;;;;;;5064374;28;20854;-73
2022/09/27 11:18:44;;;;;;;1.87;1.77;;;14.70;99.90;;;;;;5054151;28;20515;-73
2022/09/27 11:21:15;;;;;;;2.77;1.27;;;14.70;99.90;;;;;;5061211;28;20923;-72
2022/09/27 11:24:08;;;;;;;2.27;1.63;;;14.60;99.90;;;;;;5074671;28;20478;-73
2022/09/27 11:26:52;;;;;;;1.30;1.10;;;14.60;99.90;;;;;;5074148;28;20538;-72
2022/09/27 11:29:34;;;;;;;2.30;1.70;;;14.40;99.90;;;;;;5053694;28;20419;-72
2022/09/27 11:32:34;;;;;;;7.47;1.80;;;14.50;99.90;;;;;;5057274;28;20465;-72
2022/09/27 11:35:31;;;;;;;1.10;1.00;;;14.50;99.90;;;;;;5074000;28;20429;-72
2022/09/27 11:38:22;;;;;;;4.70;1.17;;;14.40;99.90;;;;;;5063001;28;20427;-73
2022/09/27 11:41:01;;;;;;;5.13;1.13;;;14.30;99.90;;;;;;5071771;28;20860;-73
2022/09/27 11:43:36;;;;;;;3.70;1.07;;;14.10;99.90;;;;;;5073261;28;20919;-73
2022/09/27 11:46:20;;;;;;;1.73;1.30;;;14.10;99.90;;;;;;5073624;28;20426;-73
2022/09/27 11:49:04;;;;;;;1.60;1.50;;;14.20;99.90;;;;;;5059377;28;20420;-73
2022/09/27 11:51:39;;;;;;;2.23;1.50;;;14.40;99.90;;;;;;5056029;28;20424;-73
2022/09/27 11:54:19;;;;;;;1.97;1.80;;;14.60;99.90;;;;;;5073036;28;20457;-73
2022/09/27 11:57:03;;;;;;;3.30;1.30;;;14.90;99.90;;;;;;5074615;28;20406;-73
2022/09/27 11:59:59;;;;;;;1.50;1.40;;;15.10;99.90;;;;;;5069947;28;20431;-73
2022/09/27 12:02:30;;;;;;;2.67;1.30;;;15.20;99.90;;;;;;5053323;28;20435;-72
2022/09/27 12:05:19;;;;;;;3.40;1.90;;;16.40;99.90;;;;;;5052550;28;20423;-73
2022/09/27 12:08:21;;;;;;;1.67;1.40;;;16.20;99.90;;;;;;5072591;28;20427;-73
2022/09/27 12:10:50;;;;;;;1.90;1.50;;;15.80;99.90;;;;;;5031434;28;20456;-73
2022/09/27 12:13:30;;;;;;;2.93;1.20;;;15.40;99.90;;;;;;5064977;28;20474;-73
2022/09/27 12:15:56;;;;;;;3.70;3.40;;;15.20;99.90;;;;;;5067157;28;20427;-73
2022/09/27 12:18:32;;;;;;;1.53;1.43;;;15.90;99.90;;;;;;5064671;28;20431;-73
2022/09/27 12:21:02;;;;;;;2.67;2.20;;;16.10;99.90;;;;;;5074058;28;20228;-73
2022/09/27 12:23:40;;;;;;;2.90;1.53;;;15.80;99.90;;;;;;5073089;28;20443;-73
2022/09/27 12:26:16;;;;;;;3.07;2.40;;;14.90;99.90;;;;;;5073474;28;20955;-73
2022/09/27 12:28:55;;;;;;;1.60;1.50;;;13.90;99.90;;;;;;5073204;28;20434;-73
2022/09/27 12:31:28;;;;;;;2.63;1.40;;;13.20;99.90;;;;;;5065628;28;20422;-73
2022/09/27 12:34:01;;;;;;;1.77;1.30;;;12.80;99.90;;;;;;5061792;28;20508;-73
2022/09/27 12:36:36;;;;;;;1.37;1.27;;;12.60;99.90;;;;;;5063161;28;20430;-73
2022/09/27 12:39:16;;;;;;;2.00;1.40;;;12.50;99.90;;;;;;5071919;28;20842;-73
2022/09/27 12:41:51;;;;;;;1.10;1.00;;;12.40;99.90;;;;;;5076842;28;20541;-72
2022/09/27 12:44:17;;;;;;;1.10;1.00;;;12.40;99.90;;;;;;5071689;28;20523;-72
2022/09/27 12:46:49;;;;;;;1.87;1.10;;;12.30;99.90;;;;;;5070007;28;20936;-72
2022/09/27 12:49:41;;;;;;;1.23;1.13;;;12.50;99.90;;;;;;5075230;28;20532;-73
2022/09/27 12:52:12;;;;;;;1.23;1.10;;;12.60;99.90;;;;;;5074127;28;21228;-73
2022/09/27 12:54:59;;;;;;;2.83;1.00;;;12.70;99.90;;;;;;5065514;28;20562;-73
2022/09/27 12:57:48;;;;;;;1.50;1.50;;;12.80;99.90;;;;;;5071248;28;20430;-72
2022/09/27 13:00:19;;;;;;;1.40;1.30;;;12.90;99.90;;;;;;5070513;28;20435;-73
2022/09/27 13:02:59;;;;;;;2.17;1.00;;;14.10;99.90;;;;;;5070705;28;20579;-73
2022/09/27 13:05:31;;;;;;;2.87;1.20;;;14.40;99.90;;;;;;5074160;28;20437;-73
2022/09/27 13:08:27;;;;;;;1.40;1.30;;;14.80;99.90;;;;;;5068730;28;20529;-72
2022/09/27 13:11:11;;;;;;;1.70;1.60;;;15.20;99.90;;;;;;5074956;28;20529;-73
2022/09/27 13:13:38;;;;;;;1.97;1.27;;;14.70;99.90;;;;;;5069213;28;20467;-72
2022/09/27 13:16:05;;;;;;;1.97;1.37;;;14.70;99.90;;;;;;5081276;28;20800;-72
2022/09/27 13:19:01;;;;;;;1.50;1.00;;;14.60;99.90;;;;;;5069179;28;20439;-72
2022/09/27 13:21:48;;;;;;;2.30;1.73;;;14.30;99.90;;;;;;5070579;28;20435;-73
2022/09/27 13:24:39;;;;;;;1.90;1.40;;;13.90;99.90;;;;;;5071497;28;20520;-72
2022/09/27 13:27:26;;;;;;;1.30;1.20;;;13.50;99.90;;;;;;5062613;28;20440;-72